Time;durP1;ratioP1;P1;durP2;ratioP2;P2;SDS_P1;SDS_P2;PMS_P1;PMS_P2;Temp;Humidity;BMP_temperature;BMP_pressure;BME280_temperature;BME280_humidity;BME280_pressure;Samples;Min_cycle;Max_cycle;Signal;HPM_P1;HPM_P2
2023/04/21 00:00:30;;;;;;;;;;;;;;;18.99;59.57;98319.19;2074478;28;19959;-49
2023/04/21 00:01:33;;;;;;;;;;;;;;;18.98;59.12;98322.91;2077589;28;21352;-51
2023/04/21 00:02:38;;;;;;;;;;;;;;;18.97;59.51;98319.41;2076773;28;19929;-48
2023/04/21 00:03:40;;;;;;;;;;;;;;;18.96;59.54;98320.44;2073820;28;19936;-49
2023/04/21 00:04:41;;;;;;;;;;;;;;;18.97;59.37;98319.41;2075106;28;19932;-46
2023/04/21 00:05:42;;;;;;;;;;;;;;;18.95;59.67;98320.66;2078646;28;20509;-46
2023/04/21 00:06:44;;;;;;;;;;;;;;;18.96;59.65;98317.75;2075160;28;20031;-51
2023/04/21 00:07:45;;;;;;;;;;;;;;;18.97;59.49;98314.03;2077807;28;19974;-48
2023/04/21 00:08:46;;;;;;;;;;;;;;;18.96;59.21;98320.44;2074498;28;19935;-46
2023/04/21 00:09:48;;;;;;;;;;;;;;;18.94;59.29;98321.69;2080322;28;19955;-52
2023/04/21 00:10:49;;;;;;;;;;;;;;;18.94;59.21;98324.38;2077643;28;19929;-49
2023/04/21 00:11:50;;;;;;;;;;;;;;;18.95;59.46;98313.41;2076811;28;19936;-46
2023/04/21 00:12:51;;;;;;;;;;;;;;;18.94;59.29;98314.47;2073918;28;19932;-52
2023/04/21 00:13:52;;;;;;;;;;;;;;;18.94;59.51;98317.16;2078940;28;19995;-47
2023/04/21 00:14:53;;;;;;;;;;;;;;;18.94;59.34;98313.63;2077442;28;19932;-46
2023/04/21 00:15:54;;;;;;;;;;;;;;;18.95;59.41;98316.09;2076123;28;19940;-48
2023/04/21 00:16:54;;;;;;;;;;;;;;;18.96;59.32;98319.63;2076896;28;19958;-51
2023/04/21 00:17:56;;;;;;;;;;;;;;;19.00;59.30;98311.94;2074929;28;20002;-51
2023/04/21 00:18:58;;;;;;;;;;;;;;;18.96;59.19;98315.06;2077135;28;19929;-50
2023/04/21 00:19:59;;;;;;;;;;;;;;;18.94;59.12;98314.47;2075834;28;19925;-51
2023/04/21 00:21:00;;;;;;;;;;;;;;;18.93;59.29;98312.81;2075860;28;19936;-50
2023/04/21 00:22:03;;;;;;;;;;;;;;;18.93;59.27;98310.09;2081201;28;19967;-51
2023/04/21 00:23:03;;;;;;;;;;;;;;;18.92;59.29;98307.66;2079524;28;19932;-51
2023/04/21 00:24:05;;;;;;;;;;;;;;;18.93;59.10;98307.44;2077700;28;19924;-50
2023/04/21 00:25:07;;;;;;;;;;;;;;;18.92;59.20;98304.97;2080417;28;19933;-49
2023/04/21 00:26:09;;;;;;;;;;;;;;;18.92;59.47;98311.16;2077966;28;19933;-49
2023/04/21 00:27:10;;;;;;;;;;;;;;;18.89;59.37;98300.84;2076341;28;19932;-51
2023/04/21 00:28:11;;;;;;;;;;;;;;;18.89;59.54;98311.59;2077847;28;20984;-49
2023/04/21 00:29:12;;;;;;;;;;;;;;;18.91;59.16;98301.44;2076374;28;20627;-50
2023/04/21 00:30:13;;;;;;;;;;;;;;;18.91;59.22;98298.75;2076810;28;19936;-50
2023/04/21 00:31:14;;;;;;;;;;;;;;;18.92;59.11;98305.78;2079940;28;20002;-50
2023/04/21 00:32:15;;;;;;;;;;;;;;;18.92;59.44;98305.78;2075741;28;19939;-51
2023/04/21 00:33:16;;;;;;;;;;;;;;;18.90;59.36;98305.16;2083996;28;19982;-51
2023/04/21 00:34:17;;;;;;;;;;;;;;;18.92;59.26;98307.66;2085753;28;20410;-50
2023/04/21 00:35:17;;;;;;;;;;;;;;;18.90;59.43;98302.47;2081587;28;19990;-49
2023/04/21 00:36:19;;;;;;;;;;;;;;;18.90;59.20;98299.78;2077238;28;20693;-49
2023/04/21 00:37:19;;;;;;;;;;;;;;;18.90;59.48;98302.47;2085258;28;20431;-50
2023/04/21 00:38:21;;;;;;;;;;;;;;;18.91;59.11;98304.13;2074185;28;19936;-52
2023/04/21 00:39:21;;;;;;;;;;;;;;;18.89;59.20;98300.84;2075644;28;19932;-51
2023/04/21 00:40:24;;;;;;;;;;;;;;;18.88;59.19;98299.16;2079545;28;21450;-49
2023/04/21 00:41:26;;;;;;;;;;;;;;;18.87;59.45;98294.84;2082930;28;19928;-50
2023/04/21 00:42:28;;;;;;;;;;;;;;;18.87;59.45;98297.53;2075532;28;19929;-48
2023/04/21 00:43:28;;;;;;;;;;;;;;;18.87;59.06;98292.16;2077593;28;19932;-50
2023/04/21 00:44:30;;;;;;;;;;;;;;;18.86;59.36;98295.91;2077646;28;19925;-52
2023/04/21 00:45:30;;;;;;;;;;;;;;;18.87;59.42;98289.47;2079925;28;20398;-52
2023/04/21 00:46:32;;;;;;;;;;;;;;;18.88;59.43;98293.78;2075406;28;19933;-51
2023/04/21 00:47:32;;;;;;;;;;;;;;;18.88;59.40;98284.91;2078698;28;20002;-50
2023/04/21 00:48:34;;;;;;;;;;;;;;;18.88;59.05;98280.34;2079232;28;20409;-49
2023/04/21 00:49:34;;;;;;;;;;;;;;;18.89;59.58;98283.91;2076599;28;19928;-52
2023/04/21 00:50:36;;;;;;;;;;;;;;;18.90;59.13;98283.66;2079489;28;19935;-50
2023/04/21 00:51:36;;;;;;;;;;;;;;;18.88;59.19;98282.22;2076132;28;19928;-52
2023/04/21 00:52:39;;;;;;;;;;;;;;;18.90;59.06;98280.16;2078770;28;19932;-50
2023/04/21 00:53:39;;;;;;;;;;;;;;;18.89;59.27;98278.53;2076551;28;20592;-49
2023/04/21 00:54:41;;;;;;;;;;;;;;;18.87;59.20;98281.41;2078278;28;19932;-52
2023/04/21 00:55:44;;;;;;;;;;;;;;;18.86;59.16;98273.56;2077794;28;19932;-48
2023/04/21 00:56:45;;;;;;;;;;;;;;;18.89;59.23;98273.97;2083348;28;20483;-49
2023/04/21 00:57:47;;;;;;;;;;;;;;;18.91;58.97;98271.06;2078238;28;19925;-52
2023/04/21 00:58:48;;;;;;;;;;;;;;;18.89;59.04;98273.97;2076766;28;19932;-50
2023/04/21 00:59:50;;;;;;;;;;;;;;;18.88;59.10;98276.84;2075410;28;20356;-51
2023/04/21 01:00:51;;;;;;;;;;;;;;;18.87;58.99;98276.03;2068868;28;19932;-51
2023/04/21 01:01:52;;;;;;;;;;;;;;;18.85;59.27;98272.72;2067023;28;21378;-49
2023/04/21 01:02:53;;;;;;;;;;;;;;;18.87;59.39;98273.34;2069578;28;19966;-51
2023/04/21 01:03:54;;;;;;;;;;;;;;;18.87;58.98;98267.16;2068510;28;19990;-52
2023/04/21 01:04:55;;;;;;;;;;;;;;;18.85;59.26;98274.59;2068875;28;19940;-48
2023/04/21 01:05:56;;;;;;;;;;;;;;;18.85;59.43;98267.34;2074305;28;19965;-49
2023/04/21 01:06:57;;;;;;;;;;;;;;;18.85;59.47;98272.72;2078616;28;20441;-49
2023/04/21 01:07:59;;;;;;;;;;;;;;;18.87;59.45;98269.84;2078197;28;19932;-52
2023/04/21 01:08:59;;;;;;;;;;;;;;;18.89;59.24;98275.84;2075208;28;19974;-53
2023/04/21 01:10:01;;;;;;;;;;;;;;;18.87;59.20;98264.47;2076585;28;19932;-51
2023/04/21 01:11:09;;;;;;;;;;;;;;;18.86;59.37;98271.72;2079010;28;19925;-49
2023/04/21 01:12:12;;;;;;;;;;;;;;;18.85;59.22;98274.59;2083056;28;20348;-50
2023/04/21 01:13:12;;;;;;;;;;;;;;;18.87;59.13;98272.53;2077061;28;19952;-49
2023/04/21 01:14:14;;;;;;;;;;;;;;;18.87;59.07;98269.84;2075566;28;19929;-49
2023/04/21 01:15:15;;;;;;;;;;;;;;;18.89;59.24;98273.16;2079712;28;20024;-52
2023/04/21 01:16:17;;;;;;;;;;;;;;;18.87;59.08;98275.22;2078452;28;19932;-50
2023/04/21 01:17:18;;;;;;;;;;;;;;;18.84;59.09;98271.09;2075013;28;19951;-49
2023/04/21 01:18:20;;;;;;;;;;;;;;;18.84;59.11;98273.78;2070175;28;20010;-49
2023/04/21 01:19:21;;;;;;;;;;;;;;;18.85;59.00;98275.41;2075666;28;20276;-51
2023/04/21 01:20:23;;;;;;;;;;;;;;;18.85;59.27;98269.22;2078473;28;20126;-49
2023/04/21 01:21:23;;;;;;;;;;;;;;;18.85;58.99;98272.72;2077850;28;19933;-53
2023/04/21 01:22:26;;;;;;;;;;;;;;;18.82;59.24;98275.84;2076720;28;20298;-49
2023/04/21 01:23:27;;;;;;;;;;;;;;;18.83;59.29;98272.13;2078606;28;20639;-51
2023/04/21 01:24:35;;;;;;;;;;;;;;;18.84;59.19;98273.78;2078510;28;20000;-49
2023/04/21 01:25:36;;;;;;;;;;;;;;;18.84;59.29;98271.09;2082101;28;20023;-50
2023/04/21 01:26:37;;;;;;;;;;;;;;;18.85;58.96;98264.66;2079329;28;19932;-51
2023/04/21 01:27:38;;;;;;;;;;;;;;;18.85;59.25;98274.59;2080886;28;20038;-50
2023/04/21 01:28:39;;;;;;;;;;;;;;;18.83;58.92;98269.44;2077606;28;20680;-50
2023/04/21 01:29:41;;;;;;;;;;;;;;;18.82;59.36;98267.78;2078326;28;22147;-52
2023/04/21 01:30:42;;;;;;;;;;;;;;;18.85;59.22;98269.22;2074371;28;19928;-53
2023/04/21 01:31:45;;;;;;;;;;;;;;;18.83;59.24;98272.13;2078598;28;19962;-50
2023/04/21 01:32:46;;;;;;;;;;;;;;;18.84;59.36;98267.59;2077767;28;19943;-49
2023/04/21 01:33:47;;;;;;;;;;;;;;;18.85;59.12;98271.91;2078060;28;19960;-49
2023/04/21 01:34:49;;;;;;;;;;;;;;;18.86;58.92;98265.50;2076128;28;20093;-49
2023/04/21 01:35:50;;;;;;;;;;;;;;;18.84;58.95;98276.47;2079504;28;19932;-49
2023/04/21 01:36:51;;;;;;;;;;;;;;;18.81;59.13;98271.53;2076743;28;19932;-49
2023/04/21 01:37:53;;;;;;;;;;;;;;;18.80;59.13;98274.41;2078373;28;19929;-50
2023/04/21 01:38:54;;;;;;;;;;;;;;;18.81;59.05;98278.75;2078670;28;20402;-50
2023/04/21 01:39:56;;;;;;;;;;;;;;;18.81;59.33;98271.53;2078336;28;20457;-48
2023/04/21 01:40:57;;;;;;;;;;;;;;;18.83;59.23;98285.53;2075986;28;20371;-50
2023/04/21 01:41:58;;;;;;;;;;;;;;;18.83;58.97;98274.78;2082055;28;20486;-49
2023/04/21 01:42:59;;;;;;;;;;;;;;;18.85;59.09;98272.72;2075272;28;19987;-45
2023/04/21 01:44:00;;;;;;;;;;;;;;;18.81;59.28;98279.59;2073644;28;19974;-46
2023/04/21 01:45:01;;;;;;;;;;;;;;;18.81;58.98;98263.47;2078284;28;19929;-50
2023/04/21 01:46:02;;;;;;;;;;;;;;;18.80;59.27;98275.22;2077523;28;19929;-48
2023/04/21 01:47:04;;;;;;;;;;;;;;;18.81;59.14;98274.22;2077491;28;19932;-50
2023/04/21 01:48:04;;;;;;;;;;;;;;;18.82;59.24;98266.97;2078590;28;19932;-49
2023/04/21 01:49:06;;;;;;;;;;;;;;;18.80;59.03;98269.84;2074574;28;19929;-50
2023/04/21 01:50:06;;;;;;;;;;;;;;;18.80;59.27;98269.84;2072782;28;20054;-47
2023/04/21 01:51:08;;;;;;;;;;;;;;;18.79;59.04;98262.84;2079095;28;20317;-50
2023/04/21 01:52:09;;;;;;;;;;;;;;;18.81;59.04;98276.06;2076746;28;19994;-48
2023/04/21 01:53:11;;;;;;;;;;;;;;;18.81;59.31;98278.75;2076538;28;21777;-48
2023/04/21 01:54:12;;;;;;;;;;;;;;;18.81;59.23;98276.91;2080232;28;20525;-49
2023/04/21 01:55:14;;;;;;;;;;;;;;;18.81;59.01;98279.59;2080743;27;19928;-49
2023/04/21 01:56:15;;;;;;;;;;;;;;;18.81;58.98;98276.91;2077786;28;19925;-48
2023/04/21 01:57:16;;;;;;;;;;;;;;;18.81;59.29;98276.06;2079042;27;19955;-45
2023/04/21 01:58:17;;;;;;;;;;;;;;;18.78;59.17;98281.84;2077824;28;19933;-47
2023/04/21 01:59:18;;;;;;;;;;;;;;;18.78;59.14;98277.31;2075296;28;20759;-55
2023/04/21 02:00:19;;;;;;;;;;;;;;;18.78;59.20;98277.31;2074623;28;19985;-47
2023/04/21 02:01:20;;;;;;;;;;;;;;;18.77;59.18;98278.34;2078125;28;22201;-47
2023/04/21 02:02:21;;;;;;;;;;;;;;;18.78;59.28;98281.84;2076691;28;19986;-49
2023/04/21 02:03:22;;;;;;;;;;;;;;;18.78;58.85;98282.69;2085517;28;19978;-47
2023/04/21 02:04:22;;;;;;;;;;;;;;;18.77;59.00;98281.03;2085677;28;19966;-48
2023/04/21 02:05:24;;;;;;;;;;;;;;;18.81;59.15;98282.28;2076260;28;19940;-49
2023/04/21 02:06:25;;;;;;;;;;;;;;;18.79;58.88;98278.97;2076522;28;19932;-49
2023/04/21 02:07:26;;;;;;;;;;;;;;;18.78;58.96;98289.91;2079048;28;19932;-48
2023/04/21 02:08:28;;;;;;;;;;;;;;;18.74;59.19;98278.78;2076666;28;19932;-49
2023/04/21 02:09:30;;;;;;;;;;;;;;;18.78;59.00;98280.00;2078267;28;19933;-47
2023/04/21 02:10:30;;;;;;;;;;;;;;;18.80;58.89;98279.78;2076819;28;19932;-49
2023/04/21 02:11:31;;;;;;;;;;;;;;;18.77;58.95;98281.03;2076447;28;19933;-46
2023/04/21 02:12:32;;;;;;;;;;;;;;;18.78;58.97;98274.63;2080926;28;19936;-49
2023/04/21 02:13:33;;;;;;;;;;;;;;;18.78;59.18;98277.31;2076458;28;19933;-46
2023/04/21 02:14:35;;;;;;;;;;;;;;;18.79;58.90;98273.59;2077499;28;20635;-47
2023/04/21 02:15:37;;;;;;;;;;;;;;;18.75;58.94;98269.69;2076178;28;20668;-46
2023/04/21 02:16:37;;;;;;;;;;;;;;;18.74;59.11;98274.22;2073093;28;19974;-48
2023/04/21 02:17:39;;;;;;;;;;;;;;;18.77;59.24;98275.66;2077015;28;23029;-46
2023/04/21 02:18:40;;;;;;;;;;;;;;;18.75;59.06;98281.25;2075334;28;21664;-50
2023/04/21 02:19:41;;;;;;;;;;;;;;;18.75;59.14;98281.25;2077292;28;19928;-48
2023/04/21 02:20:42;;;;;;;;;;;;;;;18.76;58.85;98274.03;2076642;28;20071;-48
2023/04/21 02:21:43;;;;;;;;;;;;;;;18.76;59.06;98274.03;2076187;28;19970;-47
2023/04/21 02:22:44;;;;;;;;;;;;;;;18.76;58.87;98274.03;2073861;28;19932;-50
2023/04/21 02:23:46;;;;;;;;;;;;;;;18.73;58.94;98275.25;2077220;28;19959;-55
2023/04/21 02:24:47;;;;;;;;;;;;;;;18.73;58.79;98280.59;2074109;28;19928;-49
2023/04/21 02:25:49;;;;;;;;;;;;;;;18.76;58.96;98268.66;2075189;28;19933;-52
2023/04/21 02:26:49;;;;;;;;;;;;;;;18.75;59.22;98272.38;2074808;28;20913;-50
2023/04/21 02:27:51;;;;;;;;;;;;;;;18.77;59.15;98278.34;2082430;28;19929;-51
2023/04/21 02:28:51;;;;;;;;;;;;;;;18.75;58.92;98278.56;2076685;28;19932;-49
2023/04/21 02:29:53;;;;;;;;;;;;;;;18.76;59.08;98274.03;2072970;28;19928;-48
2023/04/21 02:30:53;;;;;;;;;;;;;;;18.73;58.90;98274.41;2078400;28;19928;-50
2023/04/21 02:31:55;;;;;;;;;;;;;;;18.74;58.95;98281.47;2076424;28;20428;-50
2023/04/21 02:32:55;;;;;;;;;;;;;;;18.75;59.10;98277.75;2075607;28;20019;-49
2023/04/21 02:33:57;;;;;;;;;;;;;;;18.74;59.04;98270.72;2085654;28;19932;-49
2023/04/21 02:34:58;;;;;;;;;;;;;;;18.75;58.87;98277.75;2084285;28;19928;-50
2023/04/21 02:35:59;;;;;;;;;;;;;;;18.72;58.88;98272.75;2078538;28;19939;-50
2023/04/21 02:37:00;;;;;;;;;;;;;;;18.73;59.04;98269.88;2075784;28;19989;-49
2023/04/21 02:38:06;;;;;;;;;;;;;;;18.72;58.83;98270.06;2080866;28;20058;-49
2023/04/21 02:39:07;;;;;;;;;;;;;;;18.71;58.81;98279.16;2083000;28;19936;-49
2023/04/21 02:40:09;;;;;;;;;;;;;;;18.70;59.15;98274.84;2086223;28;19929;-50
2023/04/21 02:41:10;;;;;;;;;;;;;;;18.71;58.99;98276.50;2086476;28;19981;-49
2023/04/21 02:42:11;;;;;;;;;;;;;;;18.71;58.95;98276.50;2074945;28;20278;-49
2023/04/21 02:43:13;;;;;;;;;;;;;;;18.73;58.89;98274.41;2078642;28;19982;-50
2023/04/21 02:44:14;;;;;;;;;;;;;;;18.73;59.02;98269.88;2076525;28;19929;-50
2023/04/21 02:45:15;;;;;;;;;;;;;;;18.74;58.85;98270.72;2076231;28;20652;-49
2023/04/21 02:46:16;;;;;;;;;;;;;;;18.75;59.09;98277.75;2077334;28;19924;-50
2023/04/21 02:47:16;;;;;;;;;;;;;;;18.75;58.93;98273.19;2076270;28;20465;-50
2023/04/21 02:48:21;;;;;;;;;;;;;;;18.73;58.73;98274.41;2076739;28;19990;-56
2023/04/21 02:49:22;;;;;;;;;;;;;;;18.72;58.87;98264.69;2074930;28;19933;-53
2023/04/21 02:50:23;;;;;;;;;;;;;;;18.68;59.00;98271.53;2078431;28;19940;-49
2023/04/21 02:51:24;;;;;;;;;;;;;;;18.71;58.93;98277.31;2076629;28;19994;-50
2023/04/21 02:52:26;;;;;;;;;;;;;;;18.72;58.87;98280.81;2079308;28;19974;-51
2023/04/21 02:53:27;;;;;;;;;;;;;;;18.70;58.82;98277.53;2078011;28;22024;-51
2023/04/21 02:54:30;;;;;;;;;;;;;;;18.71;59.10;98276.50;2077680;28;19932;-52
2023/04/21 02:55:30;;;;;;;;;;;;;;;18.70;58.76;98269.47;2077409;28;19964;-49
2023/04/21 02:56:33;;;;;;;;;;;;;;;18.71;58.90;98277.31;2078454;28;19929;-53
2023/04/21 02:57:33;;;;;;;;;;;;;;;18.73;58.81;98280.59;2077931;28;20076;-53
2023/04/21 02:58:35;;;;;;;;;;;;;;;18.74;58.93;98271.53;2078909;28;21151;-53
2023/04/21 02:59:36;;;;;;;;;;;;;;;18.73;58.81;98277.94;2081331;28;19933;-52
2023/04/21 03:00:37;;;;;;;;;;;;;;;18.72;59.05;98281.66;2078512;28;20035;-52
2023/04/21 03:01:38;;;;;;;;;;;;;;;18.72;58.87;98278.13;2078989;28;19937;-46
2023/04/21 03:02:39;;;;;;;;;;;;;;;18.72;58.89;98278.97;2078193;28;19940;-52
2023/04/21 03:03:39;;;;;;;;;;;;;;;18.71;58.93;98280.00;2079988;28;20489;-55
2023/04/21 03:04:41;;;;;;;;;;;;;;;18.71;58.91;98290.75;2078157;28;19932;-54
2023/04/21 03:05:41;;;;;;;;;;;;;;;18.73;58.78;98291.34;2079473;28;21980;-46
2023/04/21 03:06:43;;;;;;;;;;;;;;;18.70;58.99;98290.97;2076849;28;19933;-54
2023/04/21 03:07:43;;;;;;;;;;;;;;;18.71;59.02;98289.91;2079710;28;19924;-50
2023/04/21 03:08:45;;;;;;;;;;;;;;;18.70;58.96;98288.28;2079923;28;19936;-49
2023/04/21 03:09:47;;;;;;;;;;;;;;;18.69;59.38;98289.28;2079149;28;19940;-50
2023/04/21 03:10:48;;;;;;;;;;;;;;;18.68;58.85;98293.03;2076763;28;20072;-52
2023/04/21 03:11:49;;;;;;;;;;;;;;;18.70;59.24;98291.78;2078815;28;20117;-53
2023/04/21 03:12:50;;;;;;;;;;;;;;;18.67;58.68;98286.03;2080479;28;20963;-54
2023/04/21 03:13:51;;;;;;;;;;;;;;;18.68;58.81;98288.47;2079871;28;20585;-50
2023/04/21 03:14:52;;;;;;;;;;;;;;;18.65;59.11;98288.91;2079218;28;19933;-49
2023/04/21 03:15:53;;;;;;;;;;;;;;;18.70;58.88;98288.28;2077063;28;19991;-55
2023/04/21 03:16:54;;;;;;;;;;;;;;;18.70;58.81;98296.34;2077320;28;20021;-52
2023/04/21 03:17:55;;;;;;;;;;;;;;;18.67;58.82;98296.75;2079512;28;19932;-53
2023/04/21 03:18:56;;;;;;;;;;;;;;;18.68;59.10;98293.03;2080015;28;20940;-50
2023/04/21 03:19:57;;;;;;;;;;;;;;;18.68;59.03;98298.41;2076843;28;20066;-50
2023/04/21 03:20:59;;;;;;;;;;;;;;;18.69;58.89;98291.97;2078352;28;19995;-49
2023/04/21 03:21:59;;;;;;;;;;;;;;;18.70;58.91;98296.34;2078309;28;20539;-53
2023/04/21 03:23:01;;;;;;;;;;;;;;;18.65;58.87;98291.59;2077228;28;19939;-53
2023/04/21 03:24:01;;;;;;;;;;;;;;;18.63;58.92;98293.66;2077531;28;19936;-53
2023/04/21 03:25:06;;;;;;;;;;;;;;;18.64;59.23;98295.31;2078004;28;19932;-49
2023/04/21 03:26:06;;;;;;;;;;;;;;;18.64;58.90;98298.00;2077515;28;19935;-51
2023/04/21 03:27:08;;;;;;;;;;;;;;;18.67;58.93;98296.75;2077899;28;19936;-53
2023/04/21 03:28:08;;;;;;;;;;;;;;;18.67;59.05;98300.28;2080548;28;19928;-49
2023/04/21 03:29:09;;;;;;;;;;;;;;;18.67;59.06;98296.75;2077054;28;20001;-46
2023/04/21 03:30:10;;;;;;;;;;;;;;;18.64;58.90;98297.19;2082837;28;19936;-48
2023/04/21 03:31:12;;;;;;;;;;;;;;;18.65;58.95;98299.66;2080564;28;20216;-52
2023/04/21 03:32:12;;;;;;;;;;;;;;;18.64;59.13;98298.00;2077717;28;19929;-50
2023/04/21 03:33:14;;;;;;;;;;;;;;;18.65;58.97;98299.66;2080555;28;19944;-55
2023/04/21 03:34:14;;;;;;;;;;;;;;;18.67;58.89;98296.75;2079745;28;20158;-51
2023/04/21 03:35:16;;;;;;;;;;;;;;;18.68;59.08;98304.59;2078575;28;19929;-49
2023/04/21 03:36:17;;;;;;;;;;;;;;;18.65;58.78;98296.16;2075953;28;19929;-50
2023/04/21 03:37:18;;;;;;;;;;;;;;;18.62;59.19;98292.03;2075832;28;19932;-52
2023/04/21 03:38:19;;;;;;;;;;;;;;;18.65;58.77;98299.66;2079637;28;20022;-51
2023/04/21 03:39:20;;;;;;;;;;;;;;;18.66;58.64;98298.59;2077107;28;20071;-52
2023/04/21 03:40:23;;;;;;;;;;;;;;;18.67;58.88;98302.97;2077910;28;20024;-50
2023/04/21 03:41:23;;;;;;;;;;;;;;;18.69;58.93;98300.03;2077934;28;19970;-53
2023/04/21 03:42:25;;;;;;;;;;;;;;;18.69;59.02;98308.09;2081657;28;20337;-49
2023/04/21 03:43:25;;;;;;;;;;;;;;;18.66;59.11;98300.47;2076128;28;19936;-52
2023/04/21 03:44:27;;;;;;;;;;;;;;;18.64;58.75;98302.56;2078345;28;19931;-51
2023/04/21 03:45:28;;;;;;;;;;;;;;;18.64;58.90;98306.06;2084176;28;20034;-50
2023/04/21 03:46:29;;;;;;;;;;;;;;;18.63;58.96;98304.41;2077050;28;19962;-52
2023/04/21 03:47:30;;;;;;;;;;;;;;;18.64;58.83;98318.69;2079509;28;19932;-53
2023/04/21 03:48:31;;;;;;;;;;;;;;;18.64;59.00;98316.00;2079546;28;19924;-51
2023/04/21 03:49:33;;;;;;;;;;;;;;;18.65;59.04;98305.03;2079340;28;19990;-50
2023/04/21 03:50:34;;;;;;;;;;;;;;;18.63;59.05;98307.09;2081632;28;19932;-48
2023/04/21 03:51:34;;;;;;;;;;;;;;;18.65;59.04;98302.34;2079077;28;19933;-53
2023/04/21 03:52:36;;;;;;;;;;;;;;;18.66;59.05;98308.53;2080463;28;20038;-52
2023/04/21 03:53:36;;;;;;;;;;;;;;;18.65;58.85;98315.75;2082047;28;20387;-51
2023/04/21 03:54:38;;;;;;;;;;;;;;;18.64;59.09;98314.13;2078453;28;19932;-55
2023/04/21 03:55:40;;;;;;;;;;;;;;;18.61;58.82;98308.34;2079087;28;19985;-50
2023/04/21 03:56:41;;;;;;;;;;;;;;;18.62;58.84;98310.81;2080715;28;20507;-50
2023/04/21 03:57:41;;;;;;;;;;;;;;;18.63;58.78;98304.41;2079509;28;20009;-52
2023/04/21 03:58:43;;;;;;;;;;;;;;;18.62;58.73;98304.63;2079083;28;19982;-51
2023/04/21 03:59:43;;;;;;;;;;;;;;;18.60;59.02;98312.88;2079333;28;20843;-50
2023/04/21 04:00:45;;;;;;;;;;;;;;;18.63;58.73;98311.63;2082611;28;19932;-49
2023/04/21 04:01:45;;;;;;;;;;;;;;;18.62;58.76;98310.00;2078605;28;19940;-53
2023/04/21 04:02:47;;;;;;;;;;;;;;;18.62;58.92;98316.19;2080253;28;19974;-51
2023/04/21 04:03:47;;;;;;;;;;;;;;;18.60;59.21;98312.06;2068035;28;20707;-52
2023/04/21 04:04:48;;;;;;;;;;;;;;;18.59;58.87;98316.63;2079469;28;19924;-52
2023/04/21 04:05:49;;;;;;;;;;;;;;;18.63;58.78;98322.38;2079160;28;19928;-48
2023/04/21 04:06:50;;;;;;;;;;;;;;;18.62;58.80;98318.88;2081812;28;19967;-52
2023/04/21 04:07:51;;;;;;;;;;;;;;;18.64;58.89;98318.69;2079540;28;19929;-51
2023/04/21 04:08:52;;;;;;;;;;;;;;;18.64;58.77;98316.00;2079911;28;19928;-51
2023/04/21 04:09:53;;;;;;;;;;;;;;;18.63;58.87;98312.47;2075367;28;20394;-51
2023/04/21 04:10:56;;;;;;;;;;;;;;;18.61;58.84;98313.72;2080428;28;21747;-49
2023/04/21 04:11:56;;;;;;;;;;;;;;;18.62;58.73;98315.38;2077626;28;21004;-54
2023/04/21 04:12:58;;;;;;;;;;;;;;;18.58;58.69;98308.75;2079081;28;19925;-53
2023/04/21 04:13:58;;;;;;;;;;;;;;;18.58;59.11;98308.75;2079277;28;21990;-54
2023/04/21 04:15:00;;;;;;;;;;;;;;;18.59;58.96;98315.81;2081911;28;19936;-50
2023/04/21 04:16:00;;;;;;;;;;;;;;;18.57;58.81;98310.63;2079591;28;19937;-53
2023/04/21 04:17:02;;;;;;;;;;;;;;;18.58;59.17;98314.94;2087985;28;20485;-52
2023/04/21 04:18:02;;;;;;;;;;;;;;;18.58;58.94;98316.81;2083343;28;19929;-54
2023/04/21 04:19:04;;;;;;;;;;;;;;;18.62;58.96;98315.38;2085525;28;19956;-51
2023/04/21 04:20:05;;;;;;;;;;;;;;;18.59;59.02;98313.94;2086913;28;19929;-52
2023/04/21 04:21:07;;;;;;;;;;;;;;;18.60;59.10;98314.75;2087986;28;19928;-48
2023/04/21 04:22:07;;;;;;;;;;;;;;;18.59;58.95;98308.56;2086191;28;19939;-48
2023/04/21 04:23:09;;;;;;;;;;;;;;;18.58;58.78;98314.13;2087700;28;19925;-52
2023/04/21 04:24:10;;;;;;;;;;;;;;;18.60;58.92;98317.44;2085077;28;20024;-53
2023/04/21 04:25:13;;;;;;;;;;;;;;;18.59;58.89;98315.81;2087764;28;19928;-48
2023/04/21 04:26:15;;;;;;;;;;;;;;;18.58;59.05;98314.13;2079291;28;20563;-50
2023/04/21 04:27:19;;;;;;;;;;;;;;;18.56;58.98;98313.53;2078188;28;20057;-49
2023/04/21 04:28:21;;;;;;;;;;;;;;;18.57;59.00;98309.81;2086924;28;19928;-54
2023/04/21 04:29:23;;;;;;;;;;;;;;;18.59;58.92;98315.81;2086605;28;19941;-53
2023/04/21 04:30:26;;;;;;;;;;;;;;;18.57;58.82;98309.81;2085749;28;19970;-53
2023/04/21 04:31:29;;;;;;;;;;;;;;;18.58;58.95;98309.56;2085750;28;20279;-49
2023/04/21 04:32:30;;;;;;;;;;;;;;;18.58;58.97;98314.13;2084804;28;19933;-52
2023/04/21 04:33:31;;;;;;;;;;;;;;;18.58;58.92;98309.56;2085565;28;19929;-53
2023/04/21 04:34:32;;;;;;;;;;;;;;;18.60;58.98;98314.75;2080004;28;19951;-51
2023/04/21 04:35:33;;;;;;;;;;;;;;;18.58;58.92;98316.81;2079816;28;19979;-54
2023/04/21 04:36:34;;;;;;;;;;;;;;;18.58;59.03;98328.38;2077575;28;20401;-53
2023/04/21 04:37:36;;;;;;;;;;;;;;;18.57;58.69;98318.69;2086933;28;19939;-48
2023/04/21 04:38:36;;;;;;;;;;;;;;;18.56;58.92;98316.22;2088126;28;20432;-49
2023/04/21 04:39:38;;;;;;;;;;;;;;;18.56;58.72;98322.41;2080075;28;19940;-52
2023/04/21 04:40:38;;;;;;;;;;;;;;;18.57;58.99;98323.25;2083890;28;19981;-49
2023/04/21 04:41:41;;;;;;;;;;;;;;;18.57;58.98;98323.25;2078401;28;19932;-52
2023/04/21 04:42:42;;;;;;;;;;;;;;;18.57;58.96;98328.59;2080611;28;19929;-47
2023/04/21 04:43:44;;;;;;;;;;;;;;;18.57;58.77;98323.25;2076070;28;20393;-49
2023/04/21 04:44:44;;;;;;;;;;;;;;;18.58;59.00;98319.50;2077435;28;19985;-47
2023/04/21 04:45:46;;;;;;;;;;;;;;;18.58;58.66;98324.88;2077242;28;19925;-49
2023/04/21 04:46:48;;;;;;;;;;;;;;;18.57;58.72;98323.25;2079113;28;19933;-47
2023/04/21 04:47:49;;;;;;;;;;;;;;;18.56;58.80;98322.41;2082027;28;20386;-45
2023/04/21 04:48:50;;;;;;;;;;;;;;;18.53;58.71;98320.97;2077253;28;20014;-49
2023/04/21 04:49:51;;;;;;;;;;;;;;;18.53;58.97;98314.78;2073321;28;20314;-49
2023/04/21 04:50:52;;;;;;;;;;;;;;;18.52;59.01;98322.00;2078626;28;20042;-50
2023/04/21 04:51:53;;;;;;;;;;;;;;;18.52;58.88;98327.38;2077159;28;20029;-48
2023/04/21 04:52:55;;;;;;;;;;;;;;;18.53;58.87;98323.66;2077427;28;20039;-50
2023/04/21 04:53:56;;;;;;;;;;;;;;;18.54;58.92;98325.28;2079200;28;19971;-48
2023/04/21 04:54:56;;;;;;;;;;;;;;;18.50;58.83;98324.09;2077025;28;19947;-47
2023/04/21 04:55:58;;;;;;;;;;;;;;;18.56;59.00;98324.28;2076040;28;20919;-48
2023/04/21 04:57:01;;;;;;;;;;;;;;;18.55;58.86;98336.84;2076117;28;19928;-46
2023/04/21 04:58:02;;;;;;;;;;;;;;;18.51;59.04;98317.66;2074879;28;19979;-50
2023/04/21 04:59:04;;;;;;;;;;;;;;;18.54;58.74;98321.78;2076718;28;19924;-47
2023/04/21 05:00:06;;;;;;;;;;;;;;;18.53;58.85;98323.66;2075682;28;19928;-49
2023/04/21 05:01:16;;;;;;;;;;;;;;;18.54;59.07;98327.97;2075586;28;19932;-50
2023/04/21 05:02:17;;;;;;;;;;;;;;;18.54;58.87;98324.47;2078067;28;19941;-48
2023/04/21 05:03:18;;;;;;;;;;;;;;;18.54;58.72;98327.16;2082954;28;20809;-52
2023/04/21 05:04:19;;;;;;;;;;;;;;;18.52;58.92;98327.38;2074657;28;20013;-48
2023/04/21 05:05:21;;;;;;;;;;;;;;;18.53;58.78;98323.66;2078604;28;19936;-48
2023/04/21 05:06:21;;;;;;;;;;;;;;;18.51;58.91;98331.09;2076341;28;19987;-49
2023/04/21 05:07:23;;;;;;;;;;;;;;;18.53;58.99;98330.91;2076014;28;21859;-48
2023/04/21 05:08:23;;;;;;;;;;;;;;;18.52;58.67;98324.69;2077649;28;19929;-49
2023/04/21 05:09:25;;;;;;;;;;;;;;;18.53;58.98;98334.41;2076901;28;19955;-48
2023/04/21 05:10:25;;;;;;;;;;;;;;;18.52;58.98;98331.91;2076099;28;20546;-49
2023/04/21 05:11:27;;;;;;;;;;;;;;;18.49;59.07;98326.97;2079061;28;19939;-48
2023/04/21 05:12:28;;;;;;;;;;;;;;;18.49;58.97;98327.78;2076000;28;19994;-51
2023/04/21 05:13:30;;;;;;;;;;;;;;;18.48;58.78;98331.53;2075856;28;19925;-47
2023/04/21 05:14:30;;;;;;;;;;;;;;;18.45;59.07;98333.81;2074221;28;19997;-49
2023/04/21 05:15:32;;;;;;;;;;;;;;;18.46;58.87;98335.44;2078967;28;19925;-48
2023/04/21 05:16:33;;;;;;;;;;;;;;;18.48;59.02;98336.88;2077491;28;20862;-49
2023/04/21 05:17:34;;;;;;;;;;;;;;;18.48;59.08;98342.25;2077058;28;19928;-47
2023/04/21 05:18:35;;;;;;;;;;;;;;;18.50;58.77;98340.19;2083355;28;19977;-46
2023/04/21 05:19:37;;;;;;;;;;;;;;;18.49;58.89;98332.34;2078232;28;19936;-46